createdAt,value
2022-09-22T00:01:11.862Z,99103.63
2022-09-22T00:04:13.431Z,99109.41
2022-09-22T00:07:14.798Z,99103.88
2022-09-22T00:10:16.283Z,99102.81
2022-09-22T00:13:17.642Z,99098.50
2022-09-22T00:16:23.096Z,99096.84
2022-09-22T00:19:28.429Z,99095.22
2022-09-22T00:22:31.519Z,99087.25
2022-09-22T00:25:33.660Z,99088.88
2022-09-22T00:28:35.115Z,99090.63
2022-09-22T00:31:37.424Z,99088.91
2022-09-22T00:34:38.827Z,99085.50
2022-09-22T00:37:40.209Z,99080.03
2022-09-22T00:40:41.681Z,99077.53
2022-09-22T00:43:43.310Z,99085.19
2022-09-22T00:46:45.076Z,99079.91
2022-09-22T00:49:52.500Z,99075.50
2022-09-22T00:52:55.083Z,99071.25
2022-09-22T00:56:01.074Z,99073.78
2022-09-22T00:59:03.521Z,99066.72
2022-09-22T01:02:05.029Z,99075.47
2022-09-22T01:05:06.664Z,99066.75
2022-09-22T01:08:08.137Z,99070.94
2022-09-22T01:11:09.495Z,99069.19
2022-09-22T01:14:16.885Z,99063.97
2022-09-22T01:17:25.327Z,99066.53
2022-09-22T01:20:45.456Z,99057.78
2022-09-22T01:24:05.668Z,99061.13
2022-09-22T01:27:25.650Z,99058.50
2022-09-22T01:30:37.118Z,99053.22
2022-09-22T01:33:41.457Z,99053.88
2022-09-22T01:36:52.303Z,99047.72
2022-09-22T01:39:55.322Z,99055.38
2022-09-22T01:42:58.921Z,99047.63
2022-09-22T01:46:00.965Z,99040.56
2022-09-22T01:49:02.952Z,99040.56
2022-09-22T01:52:06.066Z,99043.03
2022-09-22T01:55:16.023Z,99043.78
2022-09-22T01:58:21.740Z,99041.09
2022-09-22T02:01:33.789Z,99035.09
2022-09-22T02:04:36.229Z,99036.81
2022-09-22T02:07:39.138Z,99044.56
2022-09-22T02:10:41.258Z,99052.88
2022-09-22T02:13:46.209Z,99042.41
2022-09-22T02:16:48.046Z,99044.97
2022-09-22T02:19:50.543Z,99046.63
2022-09-22T02:22:52.226Z,99050.81
2022-09-22T02:25:53.842Z,99042.09
2022-09-22T02:29:03.202Z,99047.09
2022-09-22T02:32:05.728Z,99049.09
2022-09-22T02:35:07.497Z,99041.06
2022-09-22T02:38:10.369Z,99054.72
2022-09-22T02:41:14.178Z,99053.00
2022-09-22T02:44:19.112Z,99039.22
2022-09-22T02:47:25.366Z,99040.97
2022-09-22T02:50:27.057Z,99052.88
2022-09-22T02:53:28.453Z,99040.69
2022-09-22T02:56:29.774Z,99044.25
2022-09-22T02:59:31.159Z,99043.28
2022-09-22T03:02:32.518Z,99038.22
2022-09-22T03:05:33.903Z,99038.72
2022-09-22T03:08:35.284Z,99043.00
2022-09-22T03:11:36.692Z,99036.91
2022-09-22T03:14:38.079Z,99035.91
2022-09-22T03:17:39.498Z,99035.06
2022-09-22T03:20:40.930Z,99035.91
2022-09-22T03:23:42.308Z,99029.03
2022-09-22T03:26:43.718Z,99030.69
2022-09-22T03:29:45.087Z,99021.88
2022-09-22T03:32:46.469Z,99030.47
2022-09-22T03:35:48.240Z,99030.50
2022-09-22T03:38:49.604Z,99026.00
2022-09-22T03:41:50.931Z,99020.84
2022-09-22T03:44:52.345Z,99030.22
2022-09-22T03:47:54.304Z,99022.59
2022-09-22T03:50:55.984Z,99022.44
2022-09-22T03:53:57.347Z,99023.28
2022-09-22T03:56:58.933Z,99027.56
2022-09-22T04:00:00.307Z,99029.34
2022-09-22T04:03:01.671Z,99025.16
2022-09-22T04:06:03.219Z,99026.97
2022-09-22T04:09:04.871Z,99019.81
2022-09-22T04:12:06.569Z,99017.84
2022-09-22T04:15:08.121Z,99028.13
2022-09-22T04:18:10.352Z,99017.75
2022-09-22T04:21:11.700Z,99020.38
2022-09-22T04:24:13.092Z,99019.66
2022-09-22T04:27:21.579Z,99017.66
2022-09-22T04:30:22.973Z,99017.66
2022-09-22T04:33:24.482Z,99016.00
2022-09-22T04:36:25.879Z,99014.94
2022-09-22T04:39:28.701Z,99014.06
2022-09-22T04:42:30.119Z,99017.75
2022-09-22T04:45:33.971Z,99016.16
2022-09-22T04:48:37.506Z,99015.97
2022-09-22T04:51:38.852Z,99015.75
2022-09-22T04:54:40.202Z,99015.00
2022-09-22T04:57:50.155Z,99014.94
2022-09-22T05:00:51.549Z,99009.75
2022-09-22T05:03:53.214Z,99013.94
2022-09-22T05:06:55.275Z,99018.78
2022-09-22T05:09:56.609Z,99018.06
2022-09-22T05:12:58.558Z,99008.88
2022-09-22T05:15:59.911Z,99016.88
2022-09-22T05:19:01.263Z,99016.19
2022-09-22T05:22:02.606Z,99015.31
2022-09-22T05:25:04.331Z,99025.47
2022-09-22T05:28:05.749Z,99022.59
2022-09-22T05:31:07.109Z,99026.78
2022-09-22T05:34:08.490Z,99030.22
2022-09-22T05:37:09.881Z,99030.13
2022-09-22T05:40:11.420Z,99032.72
2022-09-22T05:43:12.853Z,99024.09
2022-09-22T05:46:14.246Z,99031.00
2022-09-22T05:49:15.680Z,99030.19
2022-09-22T05:52:17.087Z,99019.28
2022-09-22T05:55:18.441Z,99024.53
2022-09-22T05:58:19.801Z,99025.47
2022-09-22T06:01:21.168Z,99021.13
2022-09-22T06:04:22.560Z,99015.19
2022-09-22T06:07:26.821Z,99009.03
2022-09-22T06:10:28.185Z,99013.47
2022-09-22T06:13:29.981Z,99016.25
2022-09-22T06:16:31.805Z,99019.13
2022-09-22T06:19:33.581Z,99016.06
2022-09-22T06:22:37.273Z,99015.44
2022-09-22T06:25:38.644Z,99006.94
2022-09-22T06:28:40.031Z,99009.88
2022-09-22T06:31:42.032Z,99017.81
2022-09-22T06:34:46.922Z,99022.50
2022-09-22T06:37:50.661Z,99008.84
2022-09-22T06:40:52.126Z,99003.00
2022-09-22T06:43:56.173Z,99002.41
2022-09-22T06:46:57.576Z,99005.97
2022-09-22T06:49:58.983Z,98999.41
2022-09-22T06:53:03.682Z,99006.59
2022-09-22T06:56:06.074Z,99003.44
2022-09-22T06:59:13.514Z,99003.69
2022-09-22T07:02:15.077Z,99000.41
2022-09-22T07:05:19.946Z,99000.75
2022-09-22T07:08:21.700Z,98995.13
2022-09-22T07:11:23.720Z,98994.47
2022-09-22T07:14:25.444Z,98991.31
2022-09-22T07:17:28.252Z,98996.88
2022-09-22T07:20:30.428Z,98997.25
2022-09-22T07:23:34.726Z,99002.72
2022-09-22T07:26:36.947Z,99006.53
2022-09-22T07:29:38.345Z,99001.63
2022-09-22T07:32:39.732Z,99005.41
2022-09-22T07:35:41.174Z,99005.13
2022-09-22T07:38:42.825Z,99009.69
2022-09-22T07:41:44.217Z,99015.28
2022-09-22T07:45:04.146Z,99013.09
2022-09-22T07:48:24.269Z,99021.38
2022-09-22T07:51:25.705Z,99017.28
2022-09-22T07:54:27.146Z,99016.69
2022-09-22T07:57:32.302Z,99024.16
2022-09-22T08:00:34.363Z,99014.16
2022-09-22T08:03:39.786Z,99014.53
2022-09-22T08:06:41.156Z,99017.47
2022-09-22T08:09:42.706Z,99017.84
2022-09-22T08:12:44.373Z,99021.38
2022-09-22T08:15:45.759Z,99012.84
2022-09-22T08:18:49.695Z,99005.94
2022-09-22T08:21:51.609Z,98993.81
2022-09-22T08:24:53.415Z,98996.41
2022-09-22T08:27:54.781Z,98993.69
2022-09-22T08:30:56.122Z,98982.19
2022-09-22T08:33:57.491Z,98980.94
2022-09-22T08:36:58.930Z,98976.28
2022-09-22T08:40:00.346Z,98975.03
2022-09-22T08:43:04.293Z,98972.97
2022-09-22T08:46:05.726Z,98970.75
2022-09-22T08:49:31.853Z,98955.59
2022-09-22T08:52:43.919Z,98953.53
2022-09-22T08:55:46.965Z,98938.38
2022-09-22T08:58:55.419Z,98920.78
2022-09-22T09:01:56.862Z,98916.31
2022-09-22T09:05:09.231Z,98934.13
2022-09-22T09:08:16.661Z,98950.81
2022-09-22T09:11:36.796Z,98944.38
2022-09-22T09:14:38.172Z,98917.94
2022-09-22T09:17:39.534Z,98908.88
2022-09-22T09:20:45.178Z,98907.06
2022-09-22T09:27:13.409Z,98892.31
2022-09-22T09:30:18.718Z,98915.75
2022-09-22T09:33:33.568Z,98906.84
2022-09-22T09:36:37.745Z,98927.72
2022-09-22T09:39:39.567Z,98910.66
2022-09-22T09:42:41.152Z,98923.69
2022-09-22T09:45:56.102Z,98894.09
2022-09-22T09:49:03.482Z,98880.97
2022-09-22T09:52:07.218Z,98877.91
2022-09-22T09:55:14.789Z,98855.31
2022-09-22T09:58:36.129Z,98884.59
2022-09-22T10:01:39.246Z,98898.47
2022-09-22T10:04:40.671Z,98856.13
2022-09-22T10:07:48.804Z,98865.09
2022-09-22T10:10:50.163Z,98846.91
2022-09-22T10:13:55.104Z,98855.91
2022-09-22T10:16:56.435Z,98860.22
2022-09-22T10:20:16.231Z,98862.09
2022-09-22T10:23:19.670Z,98853.97
2022-09-22T10:26:30.766Z,98832.03
2022-09-22T10:29:32.131Z,98798.28
2022-09-22T10:32:33.753Z,98774.94
2022-09-22T10:35:35.965Z,98783.47
2022-09-22T10:38:43.584Z,98775.34
2022-09-22T10:41:45.045Z,98740.00
2022-09-22T10:44:48.795Z,98720.91
2022-09-22T10:47:56.455Z,98794.78
2022-09-22T10:51:00.790Z,98782.13
2022-09-22T10:54:08.247Z,98747.41
2022-09-22T10:57:29.323Z,98797.13
2022-09-22T11:00:39.149Z,98747.50
2022-09-22T11:03:47.914Z,98780.91
2022-09-22T11:07:21.078Z,98771.63
2022-09-22T11:10:53.919Z,98748.94
2022-09-22T11:14:10.283Z,98775.88
2022-09-22T11:17:17.687Z,98761.19
2022-09-22T11:20:32.303Z,98900.28
2022-09-22T11:23:36.968Z,98914.41
2022-09-22T11:26:38.420Z,98912.94
2022-09-22T11:29:45.975Z,98921.47
2022-09-22T11:32:52.861Z,98901.81
2022-09-22T11:36:00.163Z,98903.34
2022-09-22T11:39:14.141Z,98915.06
2022-09-22T11:42:25.227Z,98913.75
2022-09-22T11:45:38.821Z,98908.06
2022-09-22T11:48:40.132Z,98891.53
2022-09-22T11:51:50.628Z,98889.88
2022-09-22T11:55:04.226Z,98868.53
2022-09-22T11:58:08.225Z,98864.75
2022-09-22T12:01:13.474Z,98874.19
2022-09-22T12:04:25.260Z,98873.97
2022-09-22T12:07:31.195Z,98873.25
2022-09-22T12:10:34.795Z,98860.09
2022-09-22T12:13:36.178Z,98860.75
2022-09-22T12:16:41.926Z,98861.22
2022-09-22T12:20:01.058Z,98841.53
2022-09-22T12:23:10.807Z,98824.72
2022-09-22T12:26:12.743Z,98826.03
2022-09-22T12:29:14.411Z,98825.41
2022-09-22T12:32:26.358Z,98838.03
2022-09-22T12:35:31.005Z,98799.28
2022-09-22T12:38:32.825Z,98813.81
2022-09-22T12:41:34.165Z,98816.31
2022-09-22T12:44:36.427Z,98797.59
2022-09-22T12:47:38.666Z,98792.63
2022-09-22T12:50:40.519Z,98781.41
2022-09-22T12:53:43.865Z,98780.63
2022-09-22T12:56:48.987Z,98788.16
2022-09-22T13:00:11.175Z,98771.03
2022-09-22T13:03:30.238Z,98785.34
2022-09-22T13:06:31.554Z,98799.91
2022-09-22T13:09:32.974Z,98775.41
2022-09-22T13:12:34.391Z,98795.84
2022-09-22T13:15:53.852Z,98794.78
2022-09-22T13:18:58.918Z,98801.28
2022-09-22T13:22:14.455Z,98781.13
2022-09-22T13:25:20.061Z,98763.44
2022-09-22T13:28:22.157Z,98762.28
2022-09-22T13:31:23.554Z,98751.16
2022-09-22T13:34:33.273Z,98763.06
2022-09-22T13:37:34.656Z,98763.47
2022-09-22T13:40:36.062Z,98751.22
2022-09-22T13:43:37.702Z,98755.69
2022-09-22T13:46:39.982Z,98769.41
2022-09-22T13:49:42.355Z,98770.50
2022-09-22T13:52:44.554Z,98743.81
2022-09-22T13:55:49.958Z,98739.44
2022-09-22T13:58:51.696Z,98748.44
2022-09-22T14:01:53.242Z,98741.34
2022-09-22T14:04:56.587Z,98738.78
2022-09-22T14:08:11.924Z,98738.59
2022-09-22T14:11:16.246Z,98733.94
2022-09-22T14:14:24.549Z,98746.28
2022-09-22T14:17:27.061Z,98737.81
2022-09-22T14:20:28.462Z,98737.13
2022-09-22T14:23:30.323Z,98740.88
2022-09-22T14:26:39.040Z,98725.94
2022-09-22T14:29:40.799Z,98736.16
2022-09-22T14:32:42.394Z,98742.03
2022-09-22T14:35:43.844Z,98735.88
2022-09-22T14:38:51.700Z,98713.00
2022-09-22T14:42:09.254Z,98700.63
2022-09-22T14:45:10.568Z,98732.16
2022-09-22T14:48:11.897Z,98751.78
2022-09-22T14:51:14.504Z,98739.53
2022-09-22T14:54:15.854Z,98751.53
2022-09-22T14:57:17.587Z,98788.44
2022-09-22T15:00:37.882Z,98771.22
2022-09-22T15:03:39.440Z,98782.88
2022-09-22T15:06:40.574Z,98767.66
2022-09-22T15:09:42.589Z,98761.44
2022-09-22T15:12:49.228Z,98744.88
2022-09-22T15:15:51.046Z,98754.34
2022-09-22T15:18:52.431Z,98750.06
2022-09-22T15:21:53.813Z,98748.66
2022-09-22T15:24:55.166Z,98745.72
2022-09-22T15:27:56.582Z,98754.34
2022-09-22T15:30:58.285Z,98758.06
2022-09-22T15:34:01.426Z,98774.59
2022-09-22T15:37:02.854Z,98758.94
2022-09-22T15:40:09.683Z,98751.19
2022-09-22T15:43:13.282Z,98754.69
2022-09-22T15:46:26.599Z,98739.13
2022-09-22T15:49:28.148Z,98743.78
2022-09-22T15:52:29.521Z,98748.53
2022-09-22T15:55:30.846Z,98763.38
2022-09-22T15:58:36.270Z,98759.56
2022-09-22T16:01:37.624Z,98751.78
2022-09-22T16:04:39.336Z,98760.63
2022-09-22T16:07:41.403Z,98760.91
2022-09-22T16:10:44.245Z,98749.50
2022-09-22T16:13:45.590Z,98761.75
2022-09-22T16:16:46.940Z,98754.56
2022-09-22T16:19:48.326Z,98761.38
2022-09-22T16:22:49.757Z,98762.00
2022-09-22T16:25:54.152Z,98765.72
2022-09-22T16:28:55.745Z,98765.03
2022-09-22T16:31:57.155Z,98772.41
2022-09-22T16:34:58.625Z,98762.09
2022-09-22T16:37:59.997Z,98762.63
2022-09-22T16:41:01.297Z,98763.03
2022-09-22T16:44:02.708Z,98765.88
2022-09-22T16:47:04.341Z,98760.84
2022-09-22T16:50:07.504Z,98758.59
2022-09-22T16:53:09.147Z,98761.75
2022-09-22T16:56:10.514Z,98760.56
2022-09-22T16:59:15.242Z,98772.28
2022-09-22T17:02:16.668Z,98770.72
2022-09-22T17:05:18.079Z,98764.16
2022-09-22T17:08:20.148Z,98773.06
2022-09-22T17:11:21.654Z,98774.06
2022-09-22T17:14:24.315Z,98774.25
2022-09-22T17:17:25.653Z,98774.53
2022-09-22T17:20:27.101Z,98768.50
2022-09-22T17:23:28.482Z,98772.06
2022-09-22T17:26:30.652Z,98776.72
2022-09-22T17:29:32.852Z,98780.25
2022-09-22T17:32:34.275Z,98774.28
2022-09-22T17:35:35.711Z,98768.19
2022-09-22T17:38:38.253Z,98773.56
2022-09-22T17:41:46.757Z,98775.44
2022-09-22T17:44:48.151Z,98779.88
2022-09-22T17:48:08.277Z,98780.00
2022-09-22T17:51:57.455Z,98780.88
2022-09-22T17:55:08.293Z,98780.94
2022-09-22T17:58:10.043Z,98781.88
2022-09-22T18:01:11.407Z,98789.78
2022-09-22T18:04:13.311Z,98790.72
2022-09-22T18:07:17.692Z,98790.75
2022-09-22T18:10:19.667Z,98800.34
2022-09-22T18:13:21.023Z,98801.28
2022-09-22T18:16:22.840Z,98799.53
2022-09-22T18:19:27.639Z,98800.44
2022-09-22T18:22:29.807Z,98802.16
2022-09-22T18:25:33.882Z,98803.06
2022-09-22T18:28:36.721Z,98797.81
2022-09-22T18:31:38.394Z,98796.06
2022-09-22T18:34:40.555Z,98800.41
2022-09-22T18:37:42.011Z,98795.19
2022-09-22T18:40:43.442Z,98801.28
2022-09-22T18:43:45.381Z,98796.91
2022-09-22T18:46:48.201Z,98799.50
2022-09-22T18:49:51.299Z,98807.31
2022-09-22T18:52:56.698Z,98810.78
2022-09-22T18:56:07.303Z,98808.13
2022-09-22T18:59:12.598Z,98809.88
2022-09-22T19:02:14.161Z,98810.72
2022-09-22T19:05:15.574Z,98809.75
2022-09-22T19:08:17.149Z,98813.19
2022-09-22T19:11:18.475Z,98811.38
2022-09-22T19:14:20.166Z,98813.09
2022-09-22T19:17:21.525Z,98812.25
2022-09-22T19:20:23.829Z,98821.78
2022-09-22T19:23:25.343Z,98820.81
2022-09-22T19:26:28.263Z,98823.38
2022-09-22T19:29:29.878Z,98819.03
2022-09-22T19:32:31.266Z,98819.94
2022-09-22T19:35:35.952Z,98805.13
2022-09-22T19:38:39.885Z,98807.53
2022-09-22T19:41:42.353Z,98805.78
2022-09-22T19:44:43.688Z,98804.06
2022-09-22T19:47:45.075Z,98806.72
2022-09-22T19:50:47.003Z,98811.91
2022-09-22T19:53:48.446Z,98803.31
2022-09-22T19:56:50.264Z,98809.38
2022-09-22T19:59:51.773Z,98813.72
2022-09-22T20:02:58.446Z,98809.38
2022-09-22T20:06:00.265Z,98808.31
2022-09-22T20:09:04.662Z,98799.53
2022-09-22T20:12:06.000Z,98807.22
2022-09-22T20:15:07.483Z,98803.88
2022-09-22T20:18:09.963Z,98807.34
2022-09-22T20:21:14.053Z,98799.56
2022-09-22T20:24:16.192Z,98804.81
2022-09-22T20:27:17.539Z,98803.81
2022-09-22T20:30:19.306Z,98802.78
2022-09-22T20:33:21.625Z,98797.63
2022-09-22T20:36:22.961Z,98798.41
2022-09-22T20:39:24.365Z,98794.16
2022-09-22T20:42:26.388Z,98796.63
2022-09-22T20:45:28.230Z,98795.75
2022-09-22T20:48:30.257Z,98791.50
2022-09-22T20:51:31.703Z,98792.38
2022-09-22T20:54:33.103Z,98793.91
2022-09-22T20:57:34.585Z,98790.25
2022-09-22T21:00:36.092Z,98792.81
2022-09-22T21:03:38.135Z,98782.38
2022-09-22T21:06:39.491Z,98786.66
2022-09-22T21:09:59.483Z,98778.03
2022-09-22T21:13:04.001Z,98773.84
2022-09-22T21:16:05.578Z,98772.06
2022-09-22T21:19:07.543Z,98771.06
2022-09-22T21:22:09.139Z,98775.31
2022-09-22T21:25:10.970Z,98769.19
2022-09-22T21:28:12.954Z,98770.81
2022-09-22T21:31:14.753Z,98770.81
2022-09-22T21:34:16.887Z,98767.41
2022-09-22T21:37:18.222Z,98767.41
2022-09-22T21:40:20.194Z,98772.41
2022-09-22T21:43:21.653Z,98766.34
2022-09-22T21:46:24.417Z,98763.63
2022-09-22T21:49:25.824Z,98771.31
2022-09-22T21:52:27.172Z,98762.66
2022-09-22T21:55:30.288Z,98767.91
2022-09-22T21:58:32.849Z,98767.88
2022-09-22T22:01:34.926Z,98764.41
2022-09-22T22:04:36.478Z,98760.22
2022-09-22T22:07:37.868Z,98754.16
2022-09-22T22:10:39.315Z,98760.31
2022-09-22T22:13:41.938Z,98757.72
2022-09-22T22:16:44.264Z,98754.31
2022-09-22T22:19:46.679Z,98758.44
2022-09-22T22:22:48.041Z,98754.94
2022-09-22T22:25:57.789Z,98749.50
2022-09-22T22:28:59.195Z,98746.00
2022-09-22T22:32:00.993Z,98750.22
2022-09-22T22:35:03.028Z,98745.06
2022-09-22T22:38:04.383Z,98754.59
2022-09-22T22:41:06.649Z,98744.16
2022-09-22T22:44:08.016Z,98748.59
2022-09-22T22:47:09.416Z,98738.88
2022-09-22T22:50:10.818Z,98747.44
2022-09-22T22:53:12.622Z,98740.47
2022-09-22T22:56:24.318Z,98732.75
2022-09-22T22:59:25.655Z,98739.63
2022-09-22T23:02:29.560Z,98729.13
2022-09-22T23:05:30.947Z,98730.97
2022-09-22T23:08:32.341Z,98730.22
2022-09-22T23:11:37.472Z,98733.75
2022-09-22T23:14:39.373Z,98739.00
2022-09-22T23:17:40.762Z,98733.84
2022-09-22T23:20:42.160Z,98731.94
2022-09-22T23:23:43.748Z,98729.97
2022-09-22T23:26:45.464Z,98719.47
2022-09-22T23:29:46.801Z,98724.69
2022-09-22T23:32:48.178Z,98720.50
2022-09-22T23:35:53.422Z,98707.56
2022-09-22T23:38:55.435Z,98711.88
2022-09-22T23:41:56.786Z,98716.84
2022-09-22T23:44:58.145Z,98714.19
2022-09-22T23:47:59.482Z,98712.38
2022-09-22T23:51:00.863Z,98710.72
2022-09-22T23:54:02.507Z,98718.50
2022-09-22T23:57:03.940Z,98716.69
